createdAt,value
2018-06-14T00:01:47.508Z,59.00
2018-06-14T00:04:21.578Z,58.70
2018-06-14T00:06:57.676Z,58.80
2018-06-14T00:09:31.762Z,58.80
2018-06-14T00:12:05.710Z,58.80
2018-06-14T00:19:44.713Z,58.70
2018-06-14T00:24:51.040Z,58.60
2018-06-14T00:51:36.914Z,58.60
2018-06-14T00:54:10.824Z,58.40
2018-06-14T00:57:52.419Z,60.10
2018-06-14T01:00:25.925Z,60.30
2018-06-14T01:03:00.100Z,60.40
2018-06-14T01:05:33.948Z,60.40
2018-06-14T01:08:08.482Z,60.30
2018-06-14T01:13:16.192Z,59.90
2018-06-14T01:15:50.181Z,59.80
2018-06-14T01:18:24.551Z,59.70
2018-06-14T01:20:59.190Z,59.50
2018-06-14T01:23:35.082Z,59.30
2018-06-14T01:26:09.218Z,59.20
2018-06-14T01:28:43.433Z,59.50
2018-06-14T01:31:17.484Z,59.40
2018-06-14T01:33:52.065Z,59.40
2018-06-14T01:36:26.204Z,59.10
2018-06-14T01:39:01.824Z,58.60
2018-06-14T01:41:36.619Z,58.40
2018-06-14T01:44:13.238Z,58.40
2018-06-14T01:46:47.596Z,58.30
2018-06-14T01:49:21.517Z,58.10
2018-06-14T01:54:29.979Z,58.20
2018-06-14T01:57:04.671Z,58.00
2018-06-14T01:59:38.543Z,58.10
2018-06-14T02:02:14.557Z,58.20
2018-06-14T02:04:48.557Z,58.10
2018-06-14T02:07:22.533Z,58.10
2018-06-14T02:09:56.565Z,58.00
2018-06-14T02:15:03.624Z,58.10
2018-06-14T02:20:09.908Z,58.20
2018-06-14T02:22:43.631Z,58.00
2018-06-14T02:25:18.756Z,58.00
2018-06-14T02:27:52.892Z,57.80
2018-06-14T02:30:26.585Z,57.80
2018-06-14T02:33:02.466Z,57.80
2018-06-14T02:35:38.084Z,57.40
2018-06-14T02:38:12.237Z,57.40
2018-06-14T02:40:47.999Z,57.60
2018-06-14T02:43:23.098Z,57.40
2018-06-14T02:45:57.154Z,57.60
2018-06-14T02:48:31.190Z,57.50
2018-06-14T02:51:05.035Z,57.40
2018-06-14T02:53:40.812Z,57.50
2018-06-14T02:56:14.364Z,57.00
2018-06-14T02:58:48.257Z,56.70
2018-06-14T03:20:39.859Z,56.30
2018-06-14T03:25:46.323Z,57.10
2018-06-14T03:30:53.075Z,58.10
2018-06-14T03:33:27.338Z,57.10
2018-06-14T03:36:01.291Z,56.80
2018-06-14T03:38:35.546Z,56.40
2018-06-14T03:41:09.711Z,56.40
2018-06-14T03:43:44.168Z,56.00
2018-06-14T03:46:18.322Z,55.90
2018-06-14T03:48:52.522Z,55.10
2018-06-14T03:51:26.716Z,54.70
2018-06-14T03:54:00.983Z,53.90
2018-06-14T04:01:40.324Z,52.60
2018-06-14T04:04:14.246Z,52.20
2018-06-14T04:06:48.299Z,51.90
2018-06-14T04:09:22.103Z,51.50
2018-06-14T04:11:56.481Z,50.60
2018-06-14T04:14:30.944Z,50.20
2018-06-14T04:17:05.156Z,49.80
2018-06-14T04:19:39.358Z,49.70
2018-06-14T04:27:20.723Z,50.10
2018-06-14T04:29:54.499Z,50.40
2018-06-14T04:32:28.308Z,50.50
2018-06-14T04:35:04.583Z,50.60
2018-06-14T04:37:38.660Z,50.50
2018-06-14T04:45:17.380Z,50.00
2018-06-14T04:47:51.395Z,50.20
2018-06-14T04:50:25.208Z,50.10
2018-06-14T04:52:59.460Z,49.60
2018-06-14T04:55:33.537Z,49.90
2018-06-14T04:58:09.386Z,49.40
2018-06-14T05:00:43.558Z,49.10
2018-06-14T05:03:18.389Z,49.00
2018-06-14T05:05:52.400Z,48.70
2018-06-14T05:08:26.272Z,48.20
2018-06-14T05:11:00.549Z,48.00
2018-06-14T05:13:34.208Z,48.00
2018-06-14T05:16:09.061Z,48.00
2018-06-14T05:18:43.052Z,48.10
2018-06-14T05:21:17.269Z,48.30
2018-06-14T05:23:53.534Z,48.10
2018-06-14T05:26:27.456Z,48.10
2018-06-14T05:29:04.900Z,48.10
2018-06-14T05:34:11.488Z,48.30
2018-06-14T05:39:17.982Z,48.40
2018-06-14T05:41:51.833Z,47.70
2018-06-14T05:44:26.797Z,47.70
2018-06-14T05:47:00.577Z,47.50
2018-06-14T05:49:34.930Z,46.90
2018-06-14T05:52:09.205Z,46.80
2018-06-14T05:54:44.992Z,46.60
2018-06-14T05:57:19.154Z,47.10
2018-06-14T06:05:00.828Z,47.00
2018-06-14T06:07:34.666Z,47.30
2018-06-14T06:10:12.333Z,47.40
2018-06-14T06:12:46.295Z,47.30
2018-06-14T06:15:21.114Z,47.00
2018-06-14T06:20:28.856Z,46.60
2018-06-14T06:23:03.136Z,46.70
2018-06-14T06:25:38.085Z,46.70
2018-06-14T06:28:11.811Z,46.70
2018-06-14T06:33:21.611Z,47.20
2018-06-14T06:35:56.473Z,47.70
2018-06-14T06:38:31.165Z,46.70
2018-06-14T06:41:05.676Z,46.70
2018-06-14T06:43:40.667Z,47.10
2018-06-14T06:48:47.047Z,47.50
2018-06-14T06:51:22.333Z,47.50
2018-06-14T06:53:58.536Z,46.90
2018-06-14T06:56:32.636Z,46.80
2018-06-14T06:59:06.771Z,46.70
2018-06-14T07:04:15.237Z,46.60
2018-06-14T07:06:48.893Z,46.30
2018-06-14T07:09:23.376Z,45.70
2018-06-14T07:11:58.042Z,45.10
2018-06-14T07:17:06.490Z,45.00
2018-06-14T07:19:41.148Z,44.70
2018-06-14T07:24:47.805Z,45.30
2018-06-14T07:27:22.448Z,45.50
2018-06-14T07:29:57.455Z,45.60
2018-06-14T07:53:23.339Z,46.40
2018-06-14T07:55:57.249Z,48.90
2018-06-14T07:58:32.234Z,48.50
2018-06-14T08:01:06.115Z,48.30
2018-06-14T08:03:41.403Z,48.10
2018-06-14T08:06:17.124Z,48.60
2018-06-14T08:11:55.781Z,49.20
2018-06-14T08:14:30.308Z,49.10
2018-06-14T08:17:05.989Z,49.00
2018-06-14T08:19:43.159Z,49.00
2018-06-14T08:22:17.505Z,49.10
2018-06-14T08:24:55.233Z,48.90
2018-06-14T08:27:29.484Z,48.50
2018-06-14T08:30:07.295Z,48.40
2018-06-14T08:35:15.302Z,48.30
2018-06-14T08:37:48.654Z,48.90
2018-06-14T08:40:23.345Z,48.60
2018-06-14T08:42:58.470Z,48.50
2018-06-14T08:45:32.208Z,48.40
2018-06-14T08:48:06.685Z,48.20
2018-06-14T08:50:40.482Z,47.80
2018-06-14T08:53:14.310Z,47.00
2018-06-14T08:55:48.217Z,47.50
2018-06-14T08:58:22.619Z,47.30
2018-06-14T09:00:57.093Z,47.00
2018-06-14T09:03:31.155Z,47.10
2018-06-14T09:06:06.303Z,47.50
2018-06-14T09:08:40.240Z,47.80
2018-06-14T09:11:16.181Z,47.60
2018-06-14T09:13:50.222Z,47.70
2018-06-14T09:16:24.179Z,47.80
2018-06-14T09:18:59.847Z,47.50
2018-06-14T09:24:05.896Z,47.70
2018-06-14T09:26:41.098Z,47.60
2018-06-14T09:29:15.468Z,47.80
2018-06-14T09:31:49.540Z,47.90
2018-06-14T09:34:23.607Z,47.90
2018-06-14T09:36:58.340Z,47.80
2018-06-14T09:39:32.296Z,47.90
2018-06-14T09:42:06.419Z,47.80
2018-06-14T09:44:40.210Z,47.70
2018-06-14T09:47:13.465Z,48.00
2018-06-14T09:49:47.765Z,48.30
2018-06-14T09:54:54.556Z,48.40
2018-06-14T09:57:28.522Z,48.50
2018-06-14T10:00:02.301Z,48.60
2018-06-14T10:02:36.334Z,48.50
2018-06-14T10:05:10.405Z,48.40
2018-06-14T10:12:49.995Z,47.90
2018-06-14T10:15:23.484Z,47.80
2018-06-14T10:20:30.476Z,48.00
2018-06-14T10:23:04.319Z,48.00
2018-06-14T10:25:38.782Z,47.70
2018-06-14T10:28:13.184Z,47.40
2018-06-14T10:30:47.087Z,47.50
2018-06-14T10:33:21.393Z,47.80
2018-06-14T10:35:54.992Z,47.90
2018-06-14T10:38:29.170Z,48.00
2018-06-14T10:41:02.998Z,48.40
2018-06-14T10:46:09.816Z,49.60
2018-06-14T10:48:43.717Z,49.10
2018-06-14T10:51:17.542Z,49.30
2018-06-14T10:53:51.836Z,49.50
2018-06-14T10:56:27.248Z,49.80
2018-06-14T10:59:01.361Z,49.90
2018-06-14T11:01:35.119Z,50.10
2018-06-14T11:04:09.288Z,50.00
2018-06-14T11:09:17.573Z,50.60
2018-06-14T11:11:51.850Z,50.10
2018-06-14T11:14:26.187Z,50.10
2018-06-14T11:16:59.959Z,50.10
2018-06-14T11:19:35.370Z,50.10
2018-06-14T11:22:09.791Z,50.00
2018-06-14T11:47:13.566Z,50.00
2018-06-14T11:49:47.461Z,49.90
2018-06-14T11:52:21.743Z,52.40
2018-06-14T11:54:55.687Z,52.80
2018-06-14T11:57:29.763Z,53.20
2018-06-14T12:02:35.991Z,53.40
2018-06-14T12:05:10.041Z,53.40
2018-06-14T12:07:44.389Z,53.60
2018-06-14T12:10:19.243Z,54.30
2018-06-14T12:12:54.191Z,53.70
2018-06-14T12:15:28.203Z,53.70
2018-06-14T12:18:02.142Z,53.90
2018-06-14T12:20:36.760Z,54.10
2018-06-14T12:23:11.288Z,54.40
2018-06-14T12:25:45.440Z,54.40
2018-06-14T12:28:19.374Z,54.80
2018-06-14T12:30:54.308Z,54.70
2018-06-14T12:33:28.728Z,55.10
2018-06-14T12:36:02.893Z,55.50
2018-06-14T12:38:36.994Z,55.70
2018-06-14T12:41:11.214Z,55.90
2018-06-14T12:43:45.208Z,56.20
2018-06-14T12:46:19.855Z,56.40
2018-06-14T12:48:53.939Z,56.50
2018-06-14T12:51:28.402Z,56.70
2018-06-14T12:54:02.100Z,56.80
2018-06-14T12:56:36.519Z,56.90
2018-06-14T12:59:11.614Z,57.00
2018-06-14T13:01:49.521Z,57.30
2018-06-14T13:04:23.847Z,57.30
2018-06-14T13:06:59.732Z,57.40
2018-06-14T13:09:33.994Z,57.50
2018-06-14T13:12:10.101Z,58.00
2018-06-14T13:17:17.055Z,57.40
2018-06-14T13:19:51.276Z,57.30
2018-06-14T13:22:26.180Z,58.00
2018-06-14T13:27:32.853Z,57.50
2018-06-14T13:30:07.158Z,57.60
2018-06-14T13:32:41.275Z,57.60
2018-06-14T13:35:15.011Z,57.60
2018-06-14T13:37:49.894Z,57.60
2018-06-14T13:40:26.714Z,57.60
2018-06-14T13:43:01.028Z,57.50
2018-06-14T13:45:35.128Z,57.40
2018-06-14T13:50:43.334Z,57.40
2018-06-14T13:53:18.105Z,57.40
2018-06-14T13:55:52.242Z,57.40
2018-06-14T13:58:26.614Z,57.50
2018-06-14T14:03:34.147Z,57.70
2018-06-14T14:08:40.418Z,57.90
2018-06-14T14:46:19.025Z,58.10
2018-06-14T14:48:52.967Z,58.30
2018-06-14T14:51:27.071Z,60.50
2018-06-14T14:54:01.569Z,60.40
2018-06-14T14:59:09.403Z,60.30
2018-06-14T15:01:43.019Z,60.00
2018-06-14T15:04:17.054Z,60.30
2018-06-14T15:06:51.993Z,59.00
2018-06-14T15:47:13.433Z,58.60
2018-06-14T15:49:47.546Z,58.10
2018-06-14T15:52:21.670Z,58.60
2018-06-14T15:55:04.450Z,58.30
2018-06-14T15:57:38.560Z,58.20
2018-06-14T16:00:15.531Z,58.00
2018-06-14T16:02:49.628Z,58.20
2018-06-14T16:05:23.794Z,57.80
2018-06-14T16:07:57.934Z,57.50
2018-06-14T16:10:31.992Z,57.30
2018-06-14T16:13:06.088Z,57.30
2018-06-14T16:15:40.159Z,57.30
2018-06-14T16:18:14.274Z,57.40
2018-06-14T16:23:21.387Z,57.70
2018-06-14T16:25:56.589Z,57.80
2018-06-14T16:28:31.793Z,57.20
2018-06-14T16:33:38.554Z,56.00
2018-06-14T16:36:12.562Z,55.70
2018-06-14T16:38:46.363Z,55.70
2018-06-14T16:41:23.447Z,55.70
2018-06-14T16:43:57.050Z,55.60
2018-06-14T16:49:03.655Z,55.70
2018-06-14T16:51:37.384Z,55.70
2018-06-14T16:54:12.428Z,55.70
2018-06-14T16:56:46.227Z,55.70
2018-06-14T16:59:21.147Z,55.80
2018-06-14T17:01:54.974Z,56.10
2018-06-14T17:04:28.982Z,56.30
2018-06-14T17:07:03.609Z,56.30
2018-06-14T17:09:37.955Z,56.00
2018-06-14T17:12:11.802Z,56.20
2018-06-14T17:14:46.176Z,55.90
2018-06-14T17:17:23.442Z,55.90
2018-06-14T17:19:57.357Z,56.70
2018-06-14T17:22:31.125Z,56.00
2018-06-14T17:25:05.479Z,56.10
2018-06-14T17:27:40.683Z,56.00
2018-06-14T17:30:14.519Z,56.00
2018-06-14T17:32:49.506Z,55.90
2018-06-14T17:35:23.911Z,55.70
2018-06-14T17:37:58.484Z,55.60
2018-06-14T17:40:32.340Z,55.70
2018-06-14T17:43:06.480Z,56.10
2018-06-14T17:45:44.095Z,56.40
2018-06-14T17:48:20.572Z,57.00
2018-06-14T17:50:54.531Z,57.50
2018-06-14T17:56:01.269Z,57.50
2018-06-14T17:58:35.666Z,57.30
2018-06-14T18:01:09.721Z,57.00
2018-06-14T18:03:44.097Z,57.00
2018-06-14T18:06:18.059Z,57.20
2018-06-14T18:08:53.195Z,57.40
2018-06-14T18:11:27.626Z,57.60
2018-06-14T18:14:01.763Z,57.70
2018-06-14T18:21:42.210Z,58.30
2018-06-14T18:24:16.216Z,58.60
2018-06-14T18:26:51.220Z,58.70
2018-06-14T18:29:27.380Z,58.60
2018-06-14T18:32:01.459Z,58.20
2018-06-14T18:34:35.673Z,57.90
2018-06-14T18:37:09.683Z,58.10
2018-06-14T18:39:44.382Z,58.40
2018-06-14T18:42:18.266Z,58.50
2018-06-14T18:44:52.436Z,58.60
2018-06-14T18:47:27.072Z,58.70
2018-06-14T18:50:01.259Z,58.60
2018-06-14T18:52:35.146Z,58.60
2018-06-14T18:55:09.532Z,58.60
2018-06-14T18:57:44.332Z,58.50
2018-06-14T19:02:51.957Z,58.00
2018-06-14T19:07:58.353Z,57.90
2018-06-14T19:10:32.382Z,58.10
2018-06-14T19:13:06.014Z,58.50
2018-06-14T19:15:40.050Z,59.00
2018-06-14T19:18:13.780Z,59.10
2018-06-14T19:20:47.771Z,59.30
2018-06-14T19:23:21.751Z,59.40
2018-06-14T19:25:55.541Z,59.00
2018-06-14T19:28:29.503Z,58.80
2018-06-14T19:31:04.333Z,58.60
2018-06-14T19:33:39.439Z,58.60
2018-06-14T19:36:13.109Z,58.70
2018-06-14T19:38:46.877Z,59.00
2018-06-14T19:43:53.145Z,59.70
2018-06-14T19:46:27.326Z,59.80
2018-06-14T19:49:01.093Z,60.20
2018-06-14T19:51:35.168Z,60.50
2018-06-14T19:54:09.143Z,61.00
2018-06-14T19:56:42.919Z,61.10
2018-06-14T19:59:16.929Z,60.80
2018-06-14T20:01:50.983Z,60.70
2018-06-14T20:04:24.997Z,60.50
2018-06-14T20:06:58.886Z,61.20
2018-06-14T20:09:33.053Z,60.30
2018-06-14T20:12:06.897Z,60.20
2018-06-14T20:14:40.629Z,61.00
2018-06-14T20:17:14.730Z,59.90
2018-06-14T20:19:50.043Z,60.10
2018-06-14T20:22:24.108Z,60.30
2018-06-14T20:24:58.274Z,60.60
2018-06-14T20:27:32.083Z,60.80
2018-06-14T20:32:40.206Z,61.30
2018-06-14T20:35:14.134Z,61.40
2018-06-14T20:37:48.437Z,61.80
2018-06-14T20:40:22.482Z,61.90
2018-06-14T20:42:56.768Z,62.00
2018-06-14T20:48:03.315Z,62.40
2018-06-14T20:50:37.185Z,62.50
2018-06-14T20:53:10.921Z,62.50
2018-06-14T20:55:44.926Z,62.90
2018-06-14T20:58:20.123Z,63.00
2018-06-14T21:03:26.952Z,63.20
2018-06-14T21:06:01.203Z,63.40
2018-06-14T21:08:35.247Z,63.40
2018-06-14T21:11:09.824Z,63.30
2018-06-14T21:13:43.846Z,63.20
2018-06-14T21:16:18.067Z,63.20
2018-06-14T21:18:51.971Z,63.20
2018-06-14T21:21:28.379Z,63.50
2018-06-14T21:24:03.969Z,63.90
2018-06-14T21:26:38.183Z,64.60
2018-06-14T21:29:12.402Z,64.60
2018-06-14T21:34:21.213Z,64.20
2018-06-14T21:36:55.454Z,64.20
2018-06-14T21:39:29.377Z,64.30
2018-06-14T21:42:04.128Z,64.40
2018-06-14T21:44:38.161Z,64.40
2018-06-14T21:47:14.620Z,64.20
2018-06-14T21:49:49.371Z,64.20
2018-06-14T21:52:26.528Z,63.80
2018-06-14T21:55:00.292Z,63.60
2018-06-14T21:57:34.323Z,63.20
2018-06-14T22:00:09.409Z,62.80
2018-06-14T22:04:55.789Z,62.90
2018-06-14T22:07:29.922Z,63.10
2018-06-14T22:12:36.605Z,63.70
2018-06-14T22:22:48.840Z,64.10
2018-06-14T22:25:22.728Z,63.50
2018-06-14T22:27:56.228Z,63.00
2018-06-14T22:30:30.215Z,62.80
2018-06-14T22:33:13.237Z,62.50
2018-06-14T22:35:48.041Z,62.00
2018-06-14T22:38:22.223Z,61.80
2018-06-14T22:40:57.046Z,61.40
2018-06-14T22:43:31.121Z,61.50
2018-06-14T22:46:05.448Z,61.50
2018-06-14T22:48:39.632Z,61.20
2018-06-14T22:51:22.680Z,61.00
2018-06-14T22:53:56.656Z,60.80
2018-06-14T22:56:30.437Z,60.70
2018-06-14T22:59:04.405Z,60.60
2018-06-14T23:01:40.622Z,60.60
2018-06-14T23:04:16.773Z,60.40
2018-06-14T23:06:50.593Z,60.10
2018-06-14T23:10:32.498Z,60.80
2018-06-14T23:13:06.936Z,61.00
2018-06-14T23:15:41.101Z,60.70
2018-06-14T23:18:16.351Z,60.80
2018-06-14T23:23:22.884Z,61.10
2018-06-14T23:25:57.197Z,61.30
2018-06-14T23:28:32.107Z,61.40
2018-06-14T23:31:06.084Z,61.40
2018-06-14T23:33:40.230Z,61.50
2018-06-14T23:36:15.164Z,61.50
2018-06-14T23:38:48.843Z,61.40
2018-06-14T23:41:23.246Z,61.20
2018-06-14T23:43:57.394Z,61.20
2018-06-14T23:49:04.595Z,62.30
2018-06-14T23:56:43.846Z,61.90
2018-06-14T23:59:18.000Z,62.00
